sensor_id;sensor_type;location;lat;lon;timestamp;temperature;humidity
782;DHT22;374;52.568;13.402;2023-04-03T00:00:56;3.00;99.90
782;DHT22;374;52.568;13.402;2023-04-03T00:03:22;3.00;99.90
782;DHT22;374;52.568;13.402;2023-04-03T00:05:47;3.00;99.90
782;DHT22;374;52.568;13.402;2023-04-03T00:08:13;3.00;99.90
782;DHT22;374;52.568;13.402;2023-04-03T00:10:38;2.90;99.90
782;DHT22;374;52.568;13.402;2023-04-03T00:13:05;2.90;99.90
782;DHT22;374;52.568;13.402;2023-04-03T00:15:31;2.90;99.90
782;DHT22;374;52.568;13.402;2023-04-03T00:17:56;2.90;99.90
782;DHT22;374;52.568;13.402;2023-04-03T00:20:22;2.90;99.90
782;DHT22;374;52.568;13.402;2023-04-03T00:22:48;2.90;99.90
782;DHT22;374;52.568;13.402;2023-04-03T00:25:13;2.90;99.90
782;DHT22;374;52.568;13.402;2023-04-03T00:27:40;2.90;99.90
782;DHT22;374;52.568;13.402;2023-04-03T00:30:07;2.80;99.90
782;DHT22;374;52.568;13.402;2023-04-03T00:32:33;2.80;99.90
782;DHT22;374;52.568;13.402;2023-04-03T00:34:59;2.80;99.90
782;DHT22;374;52.568;13.402;2023-04-03T00:37:24;2.80;99.90
782;DHT22;374;52.568;13.402;2023-04-03T00:39:50;2.80;99.90
782;DHT22;374;52.568;13.402;2023-04-03T00:42:16;2.80;99.90
782;DHT22;374;52.568;13.402;2023-04-03T00:47:10;2.70;99.90
782;DHT22;374;52.568;13.402;2023-04-03T00:49:37;2.70;99.90
782;DHT22;374;52.568;13.402;2023-04-03T00:52:05;2.70;99.90
782;DHT22;374;52.568;13.402;2023-04-03T00:54:32;2.70;99.90
782;DHT22;374;52.568;13.402;2023-04-03T00:56:58;2.70;99.90
782;DHT22;374;52.568;13.402;2023-04-03T00:59:45;2.70;99.90
782;DHT22;374;52.568;13.402;2023-04-03T01:02:12;2.60;99.90
782;DHT22;374;52.568;13.402;2023-04-03T01:04:40;2.60;99.90
782;DHT22;374;52.568;13.402;2023-04-03T01:07:11;2.60;99.90
782;DHT22;374;52.568;13.402;2023-04-03T01:09:38;2.60;99.90
782;DHT22;374;52.568;13.402;2023-04-03T01:14:50;2.60;99.90
782;DHT22;374;52.568;13.402;2023-04-03T01:17:43;2.60;99.90
782;DHT22;374;52.568;13.402;2023-04-03T01:23:10;2.60;99.90
782;DHT22;374;52.568;13.402;2023-04-03T01:25:56;2.60;99.90
782;DHT22;374;52.568;13.402;2023-04-03T01:28:26;2.50;99.90
782;DHT22;374;52.568;13.402;2023-04-03T01:33:34;2.50;99.90
782;DHT22;374;52.568;13.402;2023-04-03T01:36:00;2.50;99.90
782;DHT22;374;52.568;13.402;2023-04-03T01:38:25;2.50;99.90
782;DHT22;374;52.568;13.402;2023-04-03T01:40:51;2.50;99.90
782;DHT22;374;52.568;13.402;2023-04-03T01:43:16;2.40;99.90
782;DHT22;374;52.568;13.402;2023-04-03T01:45:42;2.40;99.90
782;DHT22;374;52.568;13.402;2023-04-03T01:48:08;2.40;99.90
782;DHT22;374;52.568;13.402;2023-04-03T01:50:33;2.40;99.90
782;DHT22;374;52.568;13.402;2023-04-03T01:52:59;2.40;99.90
782;DHT22;374;52.568;13.402;2023-04-03T01:55:24;2.40;99.90
782;DHT22;374;52.568;13.402;2023-04-03T01:57:50;2.40;99.90
782;DHT22;374;52.568;13.402;2023-04-03T02:00:16;2.30;99.90
782;DHT22;374;52.568;13.402;2023-04-03T02:02:41;2.30;99.90
782;DHT22;374;52.568;13.402;2023-04-03T02:05:07;2.30;99.90
782;DHT22;374;52.568;13.402;2023-04-03T02:07:33;2.30;99.90
782;DHT22;374;52.568;13.402;2023-04-03T02:09:58;2.20;99.90
782;DHT22;374;52.568;13.402;2023-04-03T02:12:24;2.30;99.90
782;DHT22;374;52.568;13.402;2023-04-03T02:14:49;2.20;99.90
782;DHT22;374;52.568;13.402;2023-04-03T02:17:15;2.20;99.90
782;DHT22;374;52.568;13.402;2023-04-03T02:19:40;2.20;99.90
782;DHT22;374;52.568;13.402;2023-04-03T02:22:06;2.20;99.90
782;DHT22;374;52.568;13.402;2023-04-03T02:24:32;2.20;99.90
782;DHT22;374;52.568;13.402;2023-04-03T02:26:57;2.20;99.90
782;DHT22;374;52.568;13.402;2023-04-03T02:29:23;2.10;99.90
782;DHT22;374;52.568;13.402;2023-04-03T02:31:49;2.10;99.90
782;DHT22;374;52.568;13.402;2023-04-03T02:34:15;2.10;99.90
782;DHT22;374;52.568;13.402;2023-04-03T02:36:41;2.10;99.90
782;DHT22;374;52.568;13.402;2023-04-03T02:39:06;2.10;99.90
782;DHT22;374;52.568;13.402;2023-04-03T02:41:32;2.10;99.90
782;DHT22;374;52.568;13.402;2023-04-03T02:44:02;2.10;99.90
782;DHT22;374;52.568;13.402;2023-04-03T02:46:28;2.00;99.90
782;DHT22;374;52.568;13.402;2023-04-03T02:48:54;2.10;99.90
782;DHT22;374;52.568;13.402;2023-04-03T02:51:19;1.80;99.90
782;DHT22;374;52.568;13.402;2023-04-03T02:53:45;2.00;99.90
782;DHT22;374;52.568;13.402;2023-04-03T02:56:10;2.00;99.90
782;DHT22;374;52.568;13.402;2023-04-03T02:58:36;2.00;99.90
782;DHT22;374;52.568;13.402;2023-04-03T03:01:02;2.00;99.90
782;DHT22;374;52.568;13.402;2023-04-03T03:03:27;2.00;99.90
782;DHT22;374;52.568;13.402;2023-04-03T03:06:13;1.90;99.90
782;DHT22;374;52.568;13.402;2023-04-03T03:08:40;1.90;99.90
782;DHT22;374;52.568;13.402;2023-04-03T03:11:06;1.90;99.90
782;DHT22;374;52.568;13.402;2023-04-03T03:13:31;1.90;99.90
782;DHT22;374;52.568;13.402;2023-04-03T03:15:57;1.90;99.90
782;DHT22;374;52.568;13.402;2023-04-03T03:18:23;1.90;99.90
782;DHT22;374;52.568;13.402;2023-04-03T03:20:56;1.90;99.90
782;DHT22;374;52.568;13.402;2023-04-03T03:23:23;1.90;99.90
782;DHT22;374;52.568;13.402;2023-04-03T03:25:49;1.80;99.90
782;DHT22;374;52.568;13.402;2023-04-03T03:28:15;1.80;99.90
782;DHT22;374;52.568;13.402;2023-04-03T03:30:40;1.80;99.90
782;DHT22;374;52.568;13.402;2023-04-03T03:33:06;1.80;99.90
782;DHT22;374;52.568;13.402;2023-04-03T03:35:32;1.80;99.90
782;DHT22;374;52.568;13.402;2023-04-03T03:37:57;1.80;99.90
782;DHT22;374;52.568;13.402;2023-04-03T03:40:23;1.80;99.90
782;DHT22;374;52.568;13.402;2023-04-03T03:42:48;1.70;99.90
782;DHT22;374;52.568;13.402;2023-04-03T03:45:14;1.80;99.90
782;DHT22;374;52.568;13.402;2023-04-03T03:47:39;1.70;99.90
782;DHT22;374;52.568;13.402;2023-04-03T03:50:05;1.70;99.90
782;DHT22;374;52.568;13.402;2023-04-03T03:52:31;1.70;99.90
782;DHT22;374;52.568;13.402;2023-04-03T03:54:57;1.70;99.90
782;DHT22;374;52.568;13.402;2023-04-03T03:57:22;1.70;99.90
782;DHT22;374;52.568;13.402;2023-04-03T03:59:48;1.70;99.90
782;DHT22;374;52.568;13.402;2023-04-03T04:02:14;1.70;99.90
782;DHT22;374;52.568;13.402;2023-04-03T04:04:39;1.70;99.90
782;DHT22;374;52.568;13.402;2023-04-03T04:07:05;1.60;99.90
782;DHT22;374;52.568;13.402;2023-04-03T04:09:30;1.60;99.90
782;DHT22;374;52.568;13.402;2023-04-03T04:11:56;1.60;99.90
782;DHT22;374;52.568;13.402;2023-04-03T04:14:21;1.60;99.90
782;DHT22;374;52.568;13.402;2023-04-03T04:16:47;1.60;99.90
782;DHT22;374;52.568;13.402;2023-04-03T04:19:13;1.60;99.90
782;DHT22;374;52.568;13.402;2023-04-03T04:21:39;1.60;99.90
782;DHT22;374;52.568;13.402;2023-04-03T04:24:05;1.60;99.90
782;DHT22;374;52.568;13.402;2023-04-03T04:26:30;1.50;99.90
782;DHT22;374;52.568;13.402;2023-04-03T04:28:56;1.50;99.90
782;DHT22;374;52.568;13.402;2023-04-03T04:31:21;1.50;99.90
782;DHT22;374;52.568;13.402;2023-04-03T04:33:47;1.50;99.90
782;DHT22;374;52.568;13.402;2023-04-03T04:36:12;1.50;99.90
782;DHT22;374;52.568;13.402;2023-04-03T04:38:40;1.50;99.90
782;DHT22;374;52.568;13.402;2023-04-03T04:41:05;1.50;99.90
782;DHT22;374;52.568;13.402;2023-04-03T04:43:31;1.50;99.90
782;DHT22;374;52.568;13.402;2023-04-03T04:46:04;1.50;99.90
782;DHT22;374;52.568;13.402;2023-04-03T04:48:30;1.50;99.90
782;DHT22;374;52.568;13.402;2023-04-03T04:50:55;1.50;99.90
782;DHT22;374;52.568;13.402;2023-04-03T04:53:21;1.50;99.90
782;DHT22;374;52.568;13.402;2023-04-03T04:55:46;1.50;99.90
782;DHT22;374;52.568;13.402;2023-04-03T04:58:12;1.50;99.90
782;DHT22;374;52.568;13.402;2023-04-03T05:00:37;1.50;99.90
782;DHT22;374;52.568;13.402;2023-04-03T05:03:03;1.50;99.90
782;DHT22;374;52.568;13.402;2023-04-03T05:05:28;1.50;99.90
782;DHT22;374;52.568;13.402;2023-04-03T05:07:54;1.50;99.90
782;DHT22;374;52.568;13.402;2023-04-03T05:10:20;1.50;99.90
782;DHT22;374;52.568;13.402;2023-04-03T05:12:45;1.50;99.90
782;DHT22;374;52.568;13.402;2023-04-03T05:15:11;1.50;99.90
782;DHT22;374;52.568;13.402;2023-04-03T05:17:36;1.50;99.90
782;DHT22;374;52.568;13.402;2023-04-03T05:20:03;1.50;99.90
782;DHT22;374;52.568;13.402;2023-04-03T05:22:29;1.50;99.90
782;DHT22;374;52.568;13.402;2023-04-03T05:24:55;1.40;99.90
782;DHT22;374;52.568;13.402;2023-04-03T05:27:20;1.50;99.90
782;DHT22;374;52.568;13.402;2023-04-03T05:29:46;1.50;99.90
782;DHT22;374;52.568;13.402;2023-04-03T05:32:11;1.50;99.90
782;DHT22;374;52.568;13.402;2023-04-03T05:34:37;1.50;99.90
782;DHT22;374;52.568;13.402;2023-04-03T05:37:03;1.50;99.90
782;DHT22;374;52.568;13.402;2023-04-03T05:39:30;1.50;99.90
782;DHT22;374;52.568;13.402;2023-04-03T05:41:57;1.60;99.90
782;DHT22;374;52.568;13.402;2023-04-03T05:44:22;1.50;99.90
782;DHT22;374;52.568;13.402;2023-04-03T05:46:48;1.60;99.90
782;DHT22;374;52.568;13.402;2023-04-03T05:49:13;1.60;99.90
782;DHT22;374;52.568;13.402;2023-04-03T05:51:39;1.60;99.90
782;DHT22;374;52.568;13.402;2023-04-03T05:54:21;1.60;99.90
782;DHT22;374;52.568;13.402;2023-04-03T05:56:49;1.60;99.90
782;DHT22;374;52.568;13.402;2023-04-03T05:59:14;1.60;99.90
782;DHT22;374;52.568;13.402;2023-04-03T06:01:40;1.70;99.90
782;DHT22;374;52.568;13.402;2023-04-03T06:04:05;1.70;99.90
782;DHT22;374;52.568;13.402;2023-04-03T06:06:48;1.70;99.90
782;DHT22;374;52.568;13.402;2023-04-03T06:09:15;1.70;99.90
782;DHT22;374;52.568;13.402;2023-04-03T06:11:41;1.70;99.90
782;DHT22;374;52.568;13.402;2023-04-03T06:14:07;1.70;99.90
782;DHT22;374;52.568;13.402;2023-04-03T06:16:33;1.80;99.90
782;DHT22;374;52.568;13.402;2023-04-03T06:18:59;1.80;99.90
782;DHT22;374;52.568;13.402;2023-04-03T06:21:25;1.80;99.90
782;DHT22;374;52.568;13.402;2023-04-03T06:23:50;1.90;99.90
782;DHT22;374;52.568;13.402;2023-04-03T06:26:17;1.90;99.90
782;DHT22;374;52.568;13.402;2023-04-03T06:28:42;1.90;99.90
782;DHT22;374;52.568;13.402;2023-04-03T06:31:08;2.00;99.90
782;DHT22;374;52.568;13.402;2023-04-03T06:33:34;2.00;99.90
782;DHT22;374;52.568;13.402;2023-04-03T06:36:00;2.00;99.90
782;DHT22;374;52.568;13.402;2023-04-03T06:38:25;2.10;99.90
782;DHT22;374;52.568;13.402;2023-04-03T06:40:51;2.10;99.90
782;DHT22;374;52.568;13.402;2023-04-03T06:43:17;2.10;99.90
782;DHT22;374;52.568;13.402;2023-04-03T06:45:42;2.20;99.90
782;DHT22;374;52.568;13.402;2023-04-03T06:48:08;2.20;99.90
782;DHT22;374;52.568;13.402;2023-04-03T06:50:33;2.30;99.90
782;DHT22;374;52.568;13.402;2023-04-03T06:52:59;2.30;99.90
782;DHT22;374;52.568;13.402;2023-04-03T06:55:26;2.40;99.90
782;DHT22;374;52.568;13.402;2023-04-03T06:57:52;2.50;99.90
782;DHT22;374;52.568;13.402;2023-04-03T07:00:17;2.60;99.90
782;DHT22;374;52.568;13.402;2023-04-03T07:02:43;2.70;99.90
782;DHT22;374;52.568;13.402;2023-04-03T07:05:09;2.90;99.90
782;DHT22;374;52.568;13.402;2023-04-03T07:07:35;3.00;99.90
782;DHT22;374;52.568;13.402;2023-04-03T07:10:00;3.20;99.90
782;DHT22;374;52.568;13.402;2023-04-03T07:12:29;3.40;99.90
782;DHT22;374;52.568;13.402;2023-04-03T07:14:54;3.50;99.90
782;DHT22;374;52.568;13.402;2023-04-03T07:17:19;3.60;99.90
782;DHT22;374;52.568;13.402;2023-04-03T07:19:45;3.70;99.90
782;DHT22;374;52.568;13.402;2023-04-03T07:22:11;3.80;99.90
782;DHT22;374;52.568;13.402;2023-04-03T07:24:37;3.80;99.90
782;DHT22;374;52.568;13.402;2023-04-03T07:27:02;3.80;99.90
782;DHT22;374;52.568;13.402;2023-04-03T07:29:28;3.80;99.90
782;DHT22;374;52.568;13.402;2023-04-03T07:31:54;3.80;99.90
782;DHT22;374;52.568;13.402;2023-04-03T07:34:20;3.80;99.90
782;DHT22;374;52.568;13.402;2023-04-03T07:36:46;3.90;99.90
782;DHT22;374;52.568;13.402;2023-04-03T07:39:11;4.00;99.10
782;DHT22;374;52.568;13.402;2023-04-03T07:41:37;4.10;99.60
782;DHT22;374;52.568;13.402;2023-04-03T07:44:03;4.20;99.70
782;DHT22;374;52.568;13.402;2023-04-03T07:46:30;4.30;99.10
782;DHT22;374;52.568;13.402;2023-04-03T07:48:56;4.30;99.20
782;DHT22;374;52.568;13.402;2023-04-03T07:51:21;4.30;98.70
782;DHT22;374;52.568;13.402;2023-04-03T07:53:47;4.40;98.60
782;DHT22;374;52.568;13.402;2023-04-03T07:56:13;4.40;98.70
782;DHT22;374;52.568;13.402;2023-04-03T07:58:39;4.30;98.10
782;DHT22;374;52.568;13.402;2023-04-03T08:01:05;4.30;98.50
782;DHT22;374;52.568;13.402;2023-04-03T08:03:31;4.30;97.90
782;DHT22;374;52.568;13.402;2023-04-03T08:06:02;4.40;98.10
782;DHT22;374;52.568;13.402;2023-04-03T08:08:28;4.40;98.20
782;DHT22;374;52.568;13.402;2023-04-03T08:10:55;4.60;98.10
782;DHT22;374;52.568;13.402;2023-04-03T08:13:22;4.80;98.50
782;DHT22;374;52.568;13.402;2023-04-03T08:15:48;5.10;97.90
782;DHT22;374;52.568;13.402;2023-04-03T08:18:15;5.10;97.00
782;DHT22;374;52.568;13.402;2023-04-03T08:20:41;5.20;96.30
782;DHT22;374;52.568;13.402;2023-04-03T08:23:07;5.20;96.20
782;DHT22;374;52.568;13.402;2023-04-03T08:25:37;5.30;95.90
782;DHT22;374;52.568;13.402;2023-04-03T08:28:03;5.10;95.60
782;DHT22;374;52.568;13.402;2023-04-03T08:30:29;5.00;95.20
782;DHT22;374;52.568;13.402;2023-04-03T08:32:54;4.90;95.00
782;DHT22;374;52.568;13.402;2023-04-03T08:35:20;4.80;94.90
782;DHT22;374;52.568;13.402;2023-04-03T08:37:46;4.80;94.80
782;DHT22;374;52.568;13.402;2023-04-03T08:40:14;4.80;95.20
782;DHT22;374;52.568;13.402;2023-04-03T08:45:27;4.80;95.00
782;DHT22;374;52.568;13.402;2023-04-03T08:48:06;4.90;94.40
782;DHT22;374;52.568;13.402;2023-04-03T08:50:46;5.10;94.00
782;DHT22;374;52.568;13.402;2023-04-03T08:53:15;5.20;93.70
782;DHT22;374;52.568;13.402;2023-04-03T08:55:51;5.20;93.70
782;DHT22;374;52.568;13.402;2023-04-03T09:03:18;5.50;93.60
782;DHT22;374;52.568;13.402;2023-04-03T09:05:55;5.90;94.10
782;DHT22;374;52.568;13.402;2023-04-03T09:08:31;6.20;93.30
782;DHT22;374;52.568;13.402;2023-04-03T09:22:25;7.70;89.80
782;DHT22;374;52.568;13.402;2023-04-03T09:27:38;7.30;86.90
782;DHT22;374;52.568;13.402;2023-04-03T09:30:04;7.00;90.00
782;DHT22;374;52.568;13.402;2023-04-03T09:32:34;6.90;90.10
782;DHT22;374;52.568;13.402;2023-04-03T09:35:26;6.80;89.90
782;DHT22;374;52.568;13.402;2023-04-03T09:37:53;6.60;89.20
782;DHT22;374;52.568;13.402;2023-04-03T09:42:52;6.80;90.30
782;DHT22;374;52.568;13.402;2023-04-03T09:45:32;7.50;90.10
782;DHT22;374;52.568;13.402;2023-04-03T09:48:46;8.60;89.20
782;DHT22;374;52.568;13.402;2023-04-03T09:51:02;9.10;86.30
782;DHT22;374;52.568;13.402;2023-04-03T09:56:09;9.20;83.60
782;DHT22;374;52.568;13.402;2023-04-03T09:58:50;8.90;85.30
782;DHT22;374;52.568;13.402;2023-04-03T10:01:31;8.70;86.50
782;DHT22;374;52.568;13.402;2023-04-03T10:06:33;7.90;85.00
782;DHT22;374;52.568;13.402;2023-04-03T10:09:49;7.80;85.60
782;DHT22;374;52.568;13.402;2023-04-03T10:12:07;7.60;83.80
782;DHT22;374;52.568;13.402;2023-04-03T10:17:23;7.20;86.00
782;DHT22;374;52.568;13.402;2023-04-03T10:25:03;7.10;83.00
782;DHT22;374;52.568;13.402;2023-04-03T10:30:42;6.80;80.80
782;DHT22;374;52.568;13.402;2023-04-03T10:33:47;6.80;83.90
782;DHT22;374;52.568;13.402;2023-04-03T10:36:29;6.80;83.00
782;DHT22;374;52.568;13.402;2023-04-03T10:39:25;6.80;83.90
782;DHT22;374;52.568;13.402;2023-04-03T10:42:04;6.70;83.00
782;DHT22;374;52.568;13.402;2023-04-03T10:44:51;6.70;84.20
782;DHT22;374;52.568;13.402;2023-04-03T10:47:29;6.80;83.00
782;DHT22;374;52.568;13.402;2023-04-03T10:53:24;6.70;85.70
782;DHT22;374;52.568;13.402;2023-04-03T10:56:31;6.70;84.10
782;DHT22;374;52.568;13.402;2023-04-03T10:59:21;6.70;85.20
782;DHT22;374;52.568;13.402;2023-04-03T11:01:52;6.60;84.20
782;DHT22;374;52.568;13.402;2023-04-03T11:04:20;6.60;85.40
782;DHT22;374;52.568;13.402;2023-04-03T11:06:52;6.60;83.80
782;DHT22;374;52.568;13.402;2023-04-03T11:11:55;6.60;85.30
782;DHT22;374;52.568;13.402;2023-04-03T11:14:31;6.60;86.40
782;DHT22;374;52.568;13.402;2023-04-03T11:22:36;6.40;86.40
782;DHT22;374;52.568;13.402;2023-04-03T11:25:20;6.50;87.50
782;DHT22;374;52.568;13.402;2023-04-03T11:27:59;6.40;86.10
782;DHT22;374;52.568;13.402;2023-04-03T11:30:34;6.40;87.90
782;DHT22;374;52.568;13.402;2023-04-03T11:33:30;6.40;89.10
782;DHT22;374;52.568;13.402;2023-04-03T11:36:05;6.50;88.90
782;DHT22;374;52.568;13.402;2023-04-03T11:38:35;6.50;87.80
782;DHT22;374;52.568;13.402;2023-04-03T11:41:03;6.40;87.70
782;DHT22;374;52.568;13.402;2023-04-03T11:43:32;6.30;85.00
782;DHT22;374;52.568;13.402;2023-04-03T11:46:00;6.40;86.90
782;DHT22;374;52.568;13.402;2023-04-03T11:50:57;6.40;87.90
782;DHT22;374;52.568;13.402;2023-04-03T11:53:35;6.40;89.60
782;DHT22;374;52.568;13.402;2023-04-03T12:01:53;6.40;90.40
782;DHT22;374;52.568;13.402;2023-04-03T12:04:21;6.40;90.50
782;DHT22;374;52.568;13.402;2023-04-03T12:09:31;6.40;90.30
782;DHT22;374;52.568;13.402;2023-04-03T12:11:59;6.40;90.90
782;DHT22;374;52.568;13.402;2023-04-03T12:14:25;6.40;90.70
782;DHT22;374;52.568;13.402;2023-04-03T12:16:57;6.20;89.50
782;DHT22;374;52.568;13.402;2023-04-03T12:24:34;6.10;90.40
782;DHT22;374;52.568;13.402;2023-04-03T12:32:26;6.10;91.40
782;DHT22;374;52.568;13.402;2023-04-03T12:38:32;6.10;90.20
782;DHT22;374;52.568;13.402;2023-04-03T12:44:31;6.20;89.40
782;DHT22;374;52.568;13.402;2023-04-03T12:47:00;6.20;88.80
782;DHT22;374;52.568;13.402;2023-04-03T12:49:37;6.30;89.00
782;DHT22;374;52.568;13.402;2023-04-03T12:52:42;6.30;89.80
782;DHT22;374;52.568;13.402;2023-04-03T12:55:17;6.30;88.70
782;DHT22;374;52.568;13.402;2023-04-03T12:57:44;6.30;90.00
782;DHT22;374;52.568;13.402;2023-04-03T13:00:31;6.30;90.00
782;DHT22;374;52.568;13.402;2023-04-03T13:02:59;6.30;90.30
782;DHT22;374;52.568;13.402;2023-04-03T13:05:25;6.20;89.30
782;DHT22;374;52.568;13.402;2023-04-03T13:07:59;6.20;90.10
782;DHT22;374;52.568;13.402;2023-04-03T13:10:25;6.20;89.80
782;DHT22;374;52.568;13.402;2023-04-03T13:12:58;6.10;90.00
782;DHT22;374;52.568;13.402;2023-04-03T13:15:42;6.10;90.20
782;DHT22;374;52.568;13.402;2023-04-03T13:18:31;6.10;90.30
782;DHT22;374;52.568;13.402;2023-04-03T13:21:23;6.10;90.50
782;DHT22;374;52.568;13.402;2023-04-03T13:23:49;6.10;90.60
782;DHT22;374;52.568;13.402;2023-04-03T13:26:17;6.10;91.00
782;DHT22;374;52.568;13.402;2023-04-03T13:28:43;6.10;91.00
782;DHT22;374;52.568;13.402;2023-04-03T13:31:20;6.10;90.80
782;DHT22;374;52.568;13.402;2023-04-03T13:34:06;6.20;90.80
782;DHT22;374;52.568;13.402;2023-04-03T13:36:43;6.10;90.10
782;DHT22;374;52.568;13.402;2023-04-03T13:41:38;6.10;90.70
782;DHT22;374;52.568;13.402;2023-04-03T13:46:57;6.10;90.00
782;DHT22;374;52.568;13.402;2023-04-03T13:49:35;6.10;90.60
782;DHT22;374;52.568;13.402;2023-04-03T13:52:25;6.10;90.10
782;DHT22;374;52.568;13.402;2023-04-03T13:54:52;6.10;90.80
782;DHT22;374;52.568;13.402;2023-04-03T13:57:19;6.10;91.30
782;DHT22;374;52.568;13.402;2023-04-03T13:59:44;6.10;90.60
782;DHT22;374;52.568;13.402;2023-04-03T14:02:32;6.10;91.10
782;DHT22;374;52.568;13.402;2023-04-03T14:04:59;6.10;91.10
782;DHT22;374;52.568;13.402;2023-04-03T14:07:27;6.10;91.10
782;DHT22;374;52.568;13.402;2023-04-03T14:09:55;6.10;91.10
782;DHT22;374;52.568;13.402;2023-04-03T14:12:31;6.10;90.30
782;DHT22;374;52.568;13.402;2023-04-03T14:14:57;6.10;91.30
782;DHT22;374;52.568;13.402;2023-04-03T14:17:25;6.10;91.10
782;DHT22;374;52.568;13.402;2023-04-03T14:19:53;6.20;90.70
782;DHT22;374;52.568;13.402;2023-04-03T14:22:24;6.20;91.70
782;DHT22;374;52.568;13.402;2023-04-03T14:24:51;6.20;91.50
782;DHT22;374;52.568;13.402;2023-04-03T14:27:24;6.20;91.50
782;DHT22;374;52.568;13.402;2023-04-03T14:29:52;6.20;91.50
782;DHT22;374;52.568;13.402;2023-04-03T14:32:19;6.20;91.10
782;DHT22;374;52.568;13.402;2023-04-03T14:34:46;6.20;91.70
782;DHT22;374;52.568;13.402;2023-04-03T14:37:14;6.20;91.40
782;DHT22;374;52.568;13.402;2023-04-03T14:39:41;6.20;92.00
782;DHT22;374;52.568;13.402;2023-04-03T14:42:12;6.20;92.00
782;DHT22;374;52.568;13.402;2023-04-03T14:44:39;6.20;91.30
782;DHT22;374;52.568;13.402;2023-04-03T14:47:04;6.30;91.70
782;DHT22;374;52.568;13.402;2023-04-03T14:49:30;6.30;91.90
782;DHT22;374;52.568;13.402;2023-04-03T14:51:57;6.20;92.30
782;DHT22;374;52.568;13.402;2023-04-03T14:54:23;6.20;92.70
782;DHT22;374;52.568;13.402;2023-04-03T14:56:54;6.20;92.70
782;DHT22;374;52.568;13.402;2023-04-03T14:59:21;6.10;92.70
782;DHT22;374;52.568;13.402;2023-04-03T15:01:47;6.10;93.00
782;DHT22;374;52.568;13.402;2023-04-03T15:04:18;6.10;93.00
782;DHT22;374;52.568;13.402;2023-04-03T15:06:44;6.10;93.40
782;DHT22;374;52.568;13.402;2023-04-03T15:09:22;6.00;93.10
782;DHT22;374;52.568;13.402;2023-04-03T15:11:50;6.00;93.30
782;DHT22;374;52.568;13.402;2023-04-03T15:14:16;6.00;93.20
782;DHT22;374;52.568;13.402;2023-04-03T15:16:42;6.00;93.40
782;DHT22;374;52.568;13.402;2023-04-03T15:19:08;5.90;93.00
782;DHT22;374;52.568;13.402;2023-04-03T15:21:33;5.90;93.80
782;DHT22;374;52.568;13.402;2023-04-03T15:23:59;5.90;93.00
782;DHT22;374;52.568;13.402;2023-04-03T15:26:25;5.90;93.20
782;DHT22;374;52.568;13.402;2023-04-03T15:28:50;5.80;93.30
782;DHT22;374;52.568;13.402;2023-04-03T15:31:16;5.80;93.40
782;DHT22;374;52.568;13.402;2023-04-03T15:33:41;5.80;93.00
782;DHT22;374;52.568;13.402;2023-04-03T15:36:07;5.80;93.20
782;DHT22;374;52.568;13.402;2023-04-03T15:38:33;5.80;93.90
782;DHT22;374;52.568;13.402;2023-04-03T15:40:58;5.80;93.90
782;DHT22;374;52.568;13.402;2023-04-03T15:43:24;5.80;94.00
782;DHT22;374;52.568;13.402;2023-04-03T15:45:50;5.80;93.70
782;DHT22;374;52.568;13.402;2023-04-03T15:48:17;5.80;93.50
782;DHT22;374;52.568;13.402;2023-04-03T15:50:42;5.80;93.50
782;DHT22;374;52.568;13.402;2023-04-03T15:53:08;5.80;94.20
782;DHT22;374;52.568;13.402;2023-04-03T15:55:35;5.80;94.10
782;DHT22;374;52.568;13.402;2023-04-03T15:58:01;5.70;94.30
782;DHT22;374;52.568;13.402;2023-04-03T16:00:27;5.70;94.30
782;DHT22;374;52.568;13.402;2023-04-03T16:02:57;5.70;94.40
782;DHT22;374;52.568;13.402;2023-04-03T16:05:28;5.60;94.40
782;DHT22;374;52.568;13.402;2023-04-03T16:07:53;5.60;94.30
782;DHT22;374;52.568;13.402;2023-04-03T16:10:20;5.60;94.20
782;DHT22;374;52.568;13.402;2023-04-03T16:12:46;5.60;94.80
782;DHT22;374;52.568;13.402;2023-04-03T16:15:12;5.60;94.90
782;DHT22;374;52.568;13.402;2023-04-03T16:17:38;5.60;94.70
782;DHT22;374;52.568;13.402;2023-04-03T16:20:05;5.60;94.90
782;DHT22;374;52.568;13.402;2023-04-03T16:22:31;5.60;95.00
782;DHT22;374;52.568;13.402;2023-04-03T16:24:57;5.70;95.00
782;DHT22;374;52.568;13.402;2023-04-03T16:27:23;5.70;95.00
782;DHT22;374;52.568;13.402;2023-04-03T16:29:53;5.70;94.40
782;DHT22;374;52.568;13.402;2023-04-03T16:32:19;5.70;94.50
782;DHT22;374;52.568;13.402;2023-04-03T16:34:45;5.70;94.40
782;DHT22;374;52.568;13.402;2023-04-03T16:37:11;5.70;94.70
782;DHT22;374;52.568;13.402;2023-04-03T16:39:36;5.70;95.00
782;DHT22;374;52.568;13.402;2023-04-03T16:42:02;5.60;94.70
782;DHT22;374;52.568;13.402;2023-04-03T16:44:27;5.60;94.40
782;DHT22;374;52.568;13.402;2023-04-03T16:46:53;5.60;94.00
782;DHT22;374;52.568;13.402;2023-04-03T16:49:18;5.60;94.00
782;DHT22;374;52.568;13.402;2023-04-03T16:51:48;5.60;94.80
782;DHT22;374;52.568;13.402;2023-04-03T16:54:13;5.60;94.90
782;DHT22;374;52.568;13.402;2023-04-03T16:56:39;5.50;95.00
782;DHT22;374;52.568;13.402;2023-04-03T16:59:05;5.50;94.90
782;DHT22;374;52.568;13.402;2023-04-03T17:01:31;5.50;95.30
782;DHT22;374;52.568;13.402;2023-04-03T17:03:56;5.40;95.70
782;DHT22;374;52.568;13.402;2023-04-03T17:06:22;5.40;95.20
782;DHT22;374;52.568;13.402;2023-04-03T17:08:50;5.40;95.30
782;DHT22;374;52.568;13.402;2023-04-03T17:11:16;5.40;95.60
782;DHT22;374;52.568;13.402;2023-04-03T17:13:42;5.40;95.70
782;DHT22;374;52.568;13.402;2023-04-03T17:16:10;5.40;95.90
782;DHT22;374;52.568;13.402;2023-04-03T17:18:37;5.40;96.20
782;DHT22;374;52.568;13.402;2023-04-03T17:21:03;5.30;96.10
782;DHT22;374;52.568;13.402;2023-04-03T17:23:29;5.30;96.20
782;DHT22;374;52.568;13.402;2023-04-03T17:25:55;5.30;96.30
782;DHT22;374;52.568;13.402;2023-04-03T17:28:22;5.30;96.50
782;DHT22;374;52.568;13.402;2023-04-03T17:30:56;5.30;97.10
782;DHT22;374;52.568;13.402;2023-04-03T17:33:22;5.30;96.90
782;DHT22;374;52.568;13.402;2023-04-03T17:35:47;5.30;96.90
782;DHT22;374;52.568;13.402;2023-04-03T17:38:13;5.30;97.00
782;DHT22;374;52.568;13.402;2023-04-03T17:40:39;5.30;97.00
782;DHT22;374;52.568;13.402;2023-04-03T17:43:05;5.30;97.00
782;DHT22;374;52.568;13.402;2023-04-03T17:45:31;5.30;97.10
782;DHT22;374;52.568;13.402;2023-04-03T17:47:57;5.30;96.80
782;DHT22;374;52.568;13.402;2023-04-03T17:50:22;5.30;97.20
782;DHT22;374;52.568;13.402;2023-04-03T17:52:51;5.30;97.30
782;DHT22;374;52.568;13.402;2023-04-03T17:55:16;5.30;97.10
782;DHT22;374;52.568;13.402;2023-04-03T17:57:42;5.20;97.00
782;DHT22;374;52.568;13.402;2023-04-03T18:00:08;5.30;96.70
782;DHT22;374;52.568;13.402;2023-04-03T18:02:34;5.20;96.80
782;DHT22;374;52.568;13.402;2023-04-03T18:05:00;5.20;96.80
782;DHT22;374;52.568;13.402;2023-04-03T18:07:26;5.20;97.20
782;DHT22;374;52.568;13.402;2023-04-03T18:09:52;5.20;97.10
782;DHT22;374;52.568;13.402;2023-04-03T18:12:18;5.20;97.60
782;DHT22;374;52.568;13.402;2023-04-03T18:14:44;5.10;97.40
782;DHT22;374;52.568;13.402;2023-04-03T18:17:10;5.10;97.10
782;DHT22;374;52.568;13.402;2023-04-03T18:19:36;5.10;97.20